Terminal Aerodrome Forecast
Issued by NWS

Home | Current Version | Previous Version | Text Only | Print | Product List | Glossary Off
Versions: 1 2 3 4 5 6 7 8 9 10 11 12 13 14 15 16 17 18 19 20 21 22

000
FTUS43 KMPX 191017 AAC
TAFRWF
TAF AMD
KRWF 191017Z 1910/2006 13008KT 2SM BR OVC003
     FM191500 15014G23KT 4SM BR BKN006 OVC015
     FM191700 15020G30KT P6SM BKN020
     FM200100 15021G29KT P6SM SCT020 BKN120 WS018/16050KT=

USA.gov is the U.S. government's official web portal to all federal, state and local government web resources and services.